This is the latest recevied weather packets stored in our database for station/object IZ1BLA-10. If no packets are shown the sender has not sent any weather packets the latest 10 day(s).
| Time | Temp. | Humidity | Pressure | Rain* | Wind** | Luminosity | Snow |
|---|---|---|---|---|---|---|---|
| 1778038757 | 9.44° C | 10% | - | - | - | - | - |
| 1778038157 | 10° C | 95% | 1009.8 hPa | - | - | - | - |
| 1778037557 | 10.56° C | 93% | 1009.6 hPa | - | - | - | - |
| 1778036957 | 10.56° C | 95% | 1010 hPa | - | - | - | - |
| 1778036357 | 12.22° C | 83% | 1009.2 hPa | - | - | - | - |
| 1778035756 | 10.56° C | 91% | 1010.2 hPa | - | - | - | - |
| 1778035156 | 12.22° C | 85% | 1009.6 hPa | - | - | - | - |
| 1778034556 | 12.22° C | 82% | 1009.6 hPa | - | - | - | - |
| 1778033957 | 13.89° C | 75% | 1009.1 hPa | - | - | - | - |
| 1778033357 | 13.33° C | 78% | 1009.4 hPa | - | - | - | - |
| 1778032758 | 13.33° C | 80% | 1009.6 hPa | - | - | - | - |
| 1778032157 | 12.22° C | 88% | 1010 hPa | - | - | - | - |
| 1778031556 | 13.33° C | 82% | 1009.6 hPa | - | - | - | - |
| 1778030956 | 13.33° C | 83% | 1009.4 hPa | - | - | - | - |
| 1778030357 | 13.33° C | 82% | 1009.8 hPa | - | - | - | - |
| 1778029756 | 14.44° C | 74% | 1009.4 hPa | - | - | - | - |
| 1778029157 | 15° C | 74% | 1009.5 hPa | - | - | - | - |
| 1778028556 | 14.44° C | 76% | 1009.8 hPa | - | - | - | - |
| 1778027957 | 11.11° C | 92% | 1011.2 hPa | - | - | - | - |
| 1778027356 | 14.44° C | 76% | 1010.3 hPa | - | - | - | - |
| 1778026757 | 14.44° C | 76% | 1010.1 hPa | - | - | - | - |
| 1778026156 | 13.33° C | 79% | 1010.5 hPa | - | - | - | - |
| 1778025556 | 13.89° C | 78% | 1010.8 hPa | - | - | - | - |
| 1778024957 | 13.33° C | 80% | 1011.3 hPa | - | - | - | - |
| 1778024358 | 14.44° C | 75% | 1011.1 hPa | - | - | - | - |
* Rain since midnight (hover to see other rain measurements)
** Current wind speed in m/s (hover to see current wind gust speed)